Time;durP1;ratioP1;P1;durP2;ratioP2;P2;SDS_P1;SDS_P2;PMS_P1;PMS_P2;Temp;Humidity;BMP_temperature;BMP_pressure;BME280_temperature;BME280_humidity;BME280_pressure;Samples;Min_cycle;Max_cycle;Signal;HPM_P1;HPM_P2
2022/08/31 00:05:19;;;;;;;;;4.25;4.00;;;;;23.26;45.54;101392.91;4918123;28;45363;-71
2022/08/31 00:08:00;;;;;;;;;6.50;5.00;;;;;23.27;45.73;101397.38;4904153;28;47315;-71
2022/08/31 00:10:39;;;;;;;;;6.75;6.25;;;;;23.10;45.77;101373.25;4907159;28;46082;-71
2022/08/31 00:13:28;;;;;;;;;;;;;;;;;;;;;
2022/08/31 00:16:14;;;;;;;;;6.00;5.25;;;;;23.18;45.78;101389.91;4916546;28;72711;-71
2022/08/31 00:19:09;;;;;;;;;;;;;;;;;;;;;
2022/08/31 00:22:05;;;;;;;;;;;;;;;;;;;;;
2022/08/31 00:24:35;;;;;;;;;5.00;5.00;;;;;23.12;46.11;101388.50;4923905;28;68721;-71
2022/08/31 00:27:14;;;;;;;;;6.75;5.00;;;;;23.24;45.52;101402.19;4923068;28;45582;-71
2022/08/31 00:29:44;;;;;;;;;5.50;5.50;;;;;22.90;45.61;101355.66;4907071;28;47557;-71
2022/08/31 00:32:18;;;;;;;;;6.75;5.00;;;;;22.93;45.85;101361.75;4923316;28;45368;-71
2022/08/31 00:34:51;;;;;;;;;4.25;4.25;;;;;22.90;45.31;101356.56;4906971;28;45507;-71
2022/08/31 00:37:30;;;;;;;;;4.50;4.00;;;;;22.93;46.02;101367.19;4905288;28;45577;-71
2022/08/31 00:40:06;;;;;;;;;6.75;5.75;;;;;22.85;45.84;101356.00;4924393;28;46433;-71
2022/08/31 00:42:49;;;;;;;;;5.00;5.00;;;;;22.88;45.93;101357.66;4907362;28;45182;-71
2022/08/31 00:45:17;;;;;;;;;5.00;5.00;;;;;23.17;46.03;101415.41;4924541;28;45411;-71
2022/08/31 00:47:51;;;;;;;;;6.00;4.50;;;;;22.97;46.31;101386.03;4912104;28;45565;-71
2022/08/31 00:50:38;;;;;;;;;6.00;4.00;;;;;23.05;46.01;101400.78;4906795;28;46154;-71
2022/08/31 00:53:18;;;;;;;;;;;;;;;;;;;;;
2022/08/31 00:55:59;;;;;;;;;;;;;;;;;;;;;
2022/08/31 00:58:45;;;;;;;;;4.50;3.50;;;;;22.80;45.69;101371.81;4922515;28;72866;-71
2022/08/31 01:01:26;;;;;;;;;5.00;5.00;;;;;22.92;46.11;101386.38;4913477;28;45496;-71
2022/08/31 01:04:08;;;;;;;;;;;;;;;;;;;;;
2022/08/31 01:06:41;;;;;;;;;4.50;4.50;;;;;22.85;45.51;101387.81;4919262;28;70201;-71
2022/08/31 01:09:21;;;;;;;;;;;;;;;;;;;;;
2022/08/31 01:12:03;;;;;;;;;4.25;3.50;;;;;22.81;45.72;101381.72;4918543;28;76222;-71
2022/08/31 01:14:47;;;;;;;;;4.75;4.00;;;;;22.70;46.08;101365.31;4903642;28;45411;-71
2022/08/31 01:17:46;;;;;;;;;;;;;;;;;;;;;
2022/08/31 01:23:45;;;;;;;;;7.00;3.50;;;;;22.85;45.71;101415.03;4913297;28;46355;-71
2022/08/31 01:27:07;;;;;;;;;;;;;;;;;;;;;
2022/08/31 01:29:52;;;;;;;;;;;;;;;;;;;;;
2022/08/31 01:32:23;;;;;;;;;5.00;3.50;;;;;22.44;45.61;101368.09;4917342;28;71906;-71
2022/08/31 01:35:11;;;;;;;;;4.00;4.00;;;;;22.42;45.91;101374.63;4905162;28;47357;-71
2022/08/31 01:38:09;;;;;;;;;6.00;4.50;;;;;22.53;46.16;101396.47;4920533;28;45707;-71
2022/08/31 01:40:58;;;;;;;;;;;;;;;;;;;;;
2022/08/31 01:43:57;;;;;;;;;;;;;;;;;;;;;
2022/08/31 01:46:27;;;;;;;;;4.00;4.00;;;;;22.50;46.29;101400.31;4916630;28;75183;-71
2022/08/31 01:48:55;;;;;;;;;3.75;3.75;;;;;22.38;46.14;101383.00;4900151;28;45691;-71
2022/08/31 01:51:48;;;;;;;;;4.75;3.50;;;;;22.26;46.53;101388.44;4904739;28;45260;-71
2022/08/31 01:54:30;;;;;;;;;;;;;;;;;;;;;
2022/08/31 01:57:22;;;;;;;;;;;;;;;;;;;;;
2022/08/31 02:00:06;;;;;;;;;3.75;3.00;;;;;22.26;46.43;101393.88;4921227;28;71928;-71
2022/08/31 02:05:45;;;;;;;;;3.00;3.00;;;;;22.14;46.53;101382.88;4916745;28;45383;-71
2022/08/31 02:08:22;;;;;;;;;4.50;4.00;;;;;22.31;47.05;101411.63;4904693;28;47264;-71
2022/08/31 02:11:20;;;;;;;;;;;;;;;;;;;;;
2022/08/31 02:13:55;;;;;;;;;4.25;3.00;;;;;22.31;46.71;101408.91;4917873;28;70343;-71
2022/08/31 02:16:30;;;;;;;;;4.75;4.75;;;;;22.33;46.71;101414.25;4897439;28;45919;-71
2022/08/31 02:19:13;;;;;;;;;;;;;;;;;;;;;
2022/08/31 02:22:02;;;;;;;;;;;;;;;;;;;;;
2022/08/31 02:24:40;;;;;;;;;4.50;3.00;;;;;22.36;47.16;101424.91;4921727;28;68848;-71
2022/08/31 02:27:06;;;;;;;;;5.25;4.00;;;;;22.06;46.74;101374.41;4904806;28;46222;-71
2022/08/31 02:29:44;;;;;;;;;;;;;;;;;;;;;
2022/08/31 02:32:26;;;;;;;;;5.75;4.25;;;;;22.07;47.28;101399.72;4915274;28;71953;-71
2022/08/31 02:35:02;;;;;;;;;;;;;;;;;;;;;
2022/08/31 02:37:55;;;;;;;;;7.00;5.50;;;;;22.06;46.86;101411.59;4918865;28;73182;-71
2022/08/31 02:40:43;;;;;;;;;5.25;5.25;;;;;22.09;47.29;101420.41;4921118;28;46542;-71
2022/08/31 02:43:23;;;;;;;;;;;;;;;;;;;;;
2022/08/31 02:46:00;;;;;;;;;;;;;;;;;;;;;
2022/08/31 02:48:55;;;;;;;;;6.00;5.00;;;;;22.14;47.19;101444.56;4911502;28;72937;-71
2022/08/31 02:51:30;;;;;;;;;4.00;4.00;;;;;21.98;47.22;101431.16;4921536;28;46613;-71
2022/08/31 02:54:30;;;;;;;;;5.50;5.25;;;;;21.98;47.21;101423.00;4921851;28;45308;-71
2022/08/31 02:57:08;;;;;;;;;;;;;;;;;;;;;
2022/08/31 02:59:46;;;;;;;;;5.25;3.50;;;;;22.10;47.33;101446.63;4919816;28;72725;-71
2022/08/31 03:02:29;;;;;;;;;5.00;4.00;;;;;21.87;47.28;101415.63;4902420;28;48216;-71
2022/08/31 03:05:08;;;;;;;;;;;;;;;;;;;;;
2022/08/31 03:07:55;;;;;;;;;;;;;;;;;;;;;
2022/08/31 03:10:50;;;;;;;;;4.75;4.75;;;;;21.80;47.43;101415.16;4920093;28;72783;-71
2022/08/31 03:13:24;;;;;;;;;4.50;4.50;;;;;21.71;47.77;101409.50;4899908;28;47963;-71
2022/08/31 03:16:27;;;;;;;;;4.00;4.00;;;;;21.70;47.45;101414.06;4917685;28;45320;-71
2022/08/31 03:19:03;;;;;;;;;;;;;;;;;;;;;
2022/08/31 03:22:03;;;;;;;;;4.75;4.75;;;;;21.59;47.12;101412.06;4921369;28;71806;-71
2022/08/31 03:24:47;;;;;;;;;;;;;;;;;;;;;
2022/08/31 03:27:36;;;;;;;;;4.00;3.00;;;;;21.60;47.37;101434.66;4918129;28;71451;-71
2022/08/31 03:30:12;;;;;;;;;6.75;4.00;;;;;21.32;47.75;101397.59;4900416;28;45378;-71
2022/08/31 03:32:55;;;;;;;;;5.00;4.00;;;;;21.33;47.49;101391.22;4919956;28;45410;-71
2022/08/31 03:35:28;;;;;;;;;7.75;5.50;;;;;21.26;47.73;101391.63;4912812;28;46729;-71
2022/08/31 03:38:22;;;;;;;;;5.00;4.00;;;;;21.56;47.88;101439.44;4908236;28;45640;-71
2022/08/31 03:43:52;;;;;;;;;4.00;4.00;;;;;21.35;47.40;101420.00;4921508;28;45421;-71
2022/08/31 03:46:31;;;;;;;;;;;;;;;;;;;;;
2022/08/31 03:49:06;;;;;;;;;4.75;4.75;;;;;21.35;47.87;101424.56;4920961;28;72139;-71
2022/08/31 03:51:49;;;;;;;;;5.50;4.00;;;;;21.48;48.17;101443.66;4919163;28;45581;-71
2022/08/31 03:54:45;;;;;;;;;;;;;;;;;;;;;
2022/08/31 03:57:13;;;;;;;;;5.25;5.00;;;;;21.41;47.43;101445.88;4919691;28;75303;-71
2022/08/31 03:59:46;;;;;;;;;4.00;4.00;;;;;21.32;47.68;101430.19;4902620;28;45652;-71
2022/08/31 04:02:27;;;;;;;;;;;;;;;;;;;;;
2022/08/31 04:05:31;;;;;;;;;4.00;4.00;;;;;21.25;48.10;101429.72;4910355;28;71338;-71
2022/08/31 04:08:08;;;;;;;;;5.00;5.00;;;;;21.29;48.17;101440.28;4900125;28;47327;-71
2022/08/31 04:10:34;;;;;;;;;7.00;7.00;;;;;21.23;47.40;101438.00;4900063;28;45444;-71
2022/08/31 04:13:27;;;;;;;;;4.75;4.75;;;;;21.19;48.22;101430.16;4920867;28;45478;-72
2022/08/31 04:16:09;;;;;;;;;;;;;;;;;;;;;
2022/08/31 04:21:42;;;;;;;;;;;;;;;;;;;;;
2022/08/31 04:24:22;;;;;;;;;5.00;4.25;;;;;21.17;48.33;101426.69;4920302;28;67189;-71
2022/08/31 04:27:07;;;;;;;;;;;;;;;;;;;;;
2022/08/31 04:29:45;;;;;;;;;;;;;;;;;;;;;
2022/08/31 04:32:11;;;;;;;;;5.50;5.25;;;;;20.98;48.16;101406.19;4914693;28;72787;-71
2022/08/31 04:34:57;;;;;;;;;;;;;;;;;;;;;
2022/08/31 04:37:50;;;;;;;;;;;;;;;;;;;;;
2022/08/31 04:40:20;;;;;;;;;9.50;6.50;;;;;21.09;47.87;101441.59;4915218;28;45714;-70
2022/08/31 04:42:56;;;;;;;;;4.00;4.00;;;;;21.00;48.29;101436.78;4921308;28;45329;-71
2022/08/31 04:45:34;;;;;;;;;3.25;3.25;;;;;20.97;48.21;101428.84;4922711;28;45746;-70
2022/08/31 04:48:09;;;;;;;;;4.00;4.00;;;;;20.96;48.26;101435.22;4924430;28;45416;-70
2022/08/31 04:50:37;;;;;;;;;6.00;5.25;;;;;20.91;48.66;101423.81;4906425;28;47020;-71
2022/08/31 04:53:05;;;;;;;;;5.50;4.75;;;;;20.98;48.68;101438.75;4907170;28;45263;-71
2022/08/31 04:55:44;;;;;;;;;4.00;4.00;;;;;20.98;48.70;101448.72;4905933;28;45513;-71
2022/08/31 04:58:23;;;;;;;;;;;;;;;;;;;;;
2022/08/31 05:01:08;;;;;;;;;4.00;4.00;;;;;20.95;49.05;101457.94;4921277;28;75104;-71
2022/08/31 05:03:54;;;;;;;;;;;;;;;;;;;;;
2022/08/31 05:06:34;;;;;;;;;;;;;;;;;;;;;
2022/08/31 05:09:18;;;;;;;;;5.50;5.00;;;;;20.71;48.62;101416.97;4921518;28;72290;-71
2022/08/31 05:12:12;;;;;;;;;5.00;5.00;;;;;20.81;49.28;101437.09;4919307;28;46381;-71
2022/08/31 05:14:46;;;;;;;;;3.00;3.00;;;;;20.98;48.84;101465.00;4914016;28;45393;-70
2022/08/31 05:17:25;;;;;;;;;;;;;;;;;;;;;
2022/08/31 05:20:24;;;;;;;;;;;;;;;;;;;;;
2022/08/31 05:22:55;;;;;;;;;7.75;4.75;;;;;20.85;48.89;101443.22;4922677;28;75450;-71
2022/08/31 05:26:09;;;;;;;;;5.00;4.50;;;;;20.98;48.99;101463.16;4905841;28;45388;-71
2022/08/31 05:28:56;;;;;;;;;;;;;;;;;;;;;
2022/08/31 05:31:44;;;;;;;;;;;;;;;;;;;;;
2022/08/31 05:37:31;;;;;;;;;6.00;6.00;;;;;20.98;49.21;101465.00;4908797;28;45559;-70
2022/08/31 06:45:00;;;;;;;;;5.25;4.00;;;;;20.88;50.03;101479.16;5498595;22;45940;-77
2022/08/31 06:47:26;;;;;;;;;7.00;5.25;;;;;20.86;50.36;101485.66;4938182;28;45391;-77
2022/08/31 06:49:51;;;;;;;;;8.75;7.00;;;;;20.91;49.49;101487.13;4937614;28;45253;-77
2022/08/31 06:52:17;;;;;;;;;7.50;6.50;;;;;20.82;50.13;101476.84;4933652;28;46778;-76
2022/08/31 06:54:42;;;;;;;;;7.00;7.00;;;;;20.90;49.98;101488.06;4938485;28;45164;-77
2022/08/31 06:57:07;;;;;;;;;7.75;7.25;;;;;20.84;49.48;101480.31;4932847;28;45322;-77
2022/08/31 06:59:33;;;;;;;;;6.75;6.25;;;;;20.86;49.89;101493.78;4924378;28;45392;-77
2022/08/31 07:02:00;;;;;;;;;6.50;6.50;;;;;20.86;50.55;101491.94;4931703;28;46964;-77
2022/08/31 07:04:26;;;;;;;;;6.75;6.50;;;;;20.84;49.69;101495.75;4935163;28;45876;-79
2022/08/31 07:06:52;;;;;;;;;10.75;8.25;;;;;20.88;49.67;101494.56;4930370;28;45738;-76
2022/08/31 07:09:17;;;;;;;;;6.50;6.50;;;;;20.84;49.82;101487.59;4939070;28;45653;-77
2022/08/31 07:11:50;;;;;;;;;7.00;7.00;;;;;20.88;50.12;101498.16;4933757;28;45525;-77
2022/08/31 07:14:18;;;;;;;;;6.25;6.25;;;;;20.84;50.22;101488.47;4935797;28;45398;-77
2022/08/31 07:16:44;;;;;;;;;7.50;7.00;;;;;20.90;50.10;101487.22;4938408;28;45472;-77
2022/08/31 07:19:11;;;;;;;;;7.75;7.75;;;;;20.99;49.69;101492.03;4940415;28;45375;-76
2022/08/31 07:21:53;;;;;;;;;6.00;6.00;;;;;20.99;50.43;101486.59;4939900;28;46161;-74
2022/08/31 07:24:22;;;;;;;;;6.50;6.25;;;;;21.01;49.78;101497.38;4938608;28;45638;-73
2022/08/31 07:26:52;;;;;;;;;8.75;8.75;;;;;21.02;50.25;101482.84;4938582;28;45464;-73
2022/08/31 07:29:21;;;;;;;;;7.00;6.00;;;;;20.97;49.85;101480.41;4931847;28;45571;-73
2022/08/31 07:31:47;;;;;;;;;9.50;8.25;;;;;21.05;50.13;101486.22;4939260;28;45394;-73
2022/08/31 07:34:15;;;;;;;;;9.75;7.50;;;;;21.09;49.75;101495.88;4936763;28;45719;-73
2022/08/31 07:42:15;;;;;;;;;10.00;9.25;;;;;21.17;50.20;101489.13;4940733;28;45701;-74
2022/08/31 07:44:40;;;;;;;;;8.25;6.50;;;;;21.24;49.80;101493.16;4922788;28;45260;-73
2022/08/31 07:47:10;;;;;;;;;7.75;7.75;;;;;21.28;50.07;101494.69;4930424;28;45377;-73
2022/08/31 07:49:36;;;;;;;;;9.75;8.75;;;;;21.28;49.84;101497.41;4932241;28;46388;-73
2022/08/31 07:52:04;;;;;;;;;11.00;9.00;;;;;21.27;50.21;101492.97;4937487;28;46276;-73
2022/08/31 07:54:30;;;;;;;;;11.75;10.50;;;;;21.23;50.06;101484.16;4932476;28;47182;-74
2022/08/31 07:57:05;;;;;;;;;14.00;13.50;;;;;21.29;50.10;101491.88;4940358;28;45525;-74
2022/08/31 07:59:32;;;;;;;;;10.00;10.00;;;;;21.32;50.41;101496.25;4921170;28;46183;-73
2022/08/31 08:02:02;;;;;;;;;8.25;7.00;;;;;21.31;50.78;101491.78;4939871;28;45350;-72
2022/08/31 08:04:28;;;;;;;;;8.75;7.75;;;;;21.43;50.54;101492.81;4922477;28;45617;-74
2022/08/31 08:06:56;;;;;;;;;10.00;9.00;;;;;21.47;50.51;101494.41;4937789;28;45608;-73
2022/08/31 08:09:27;;;;;;;;;11.50;9.25;;;;;21.52;49.64;101500.41;4937382;28;45268;-77
2022/08/31 08:11:56;;;;;;;;;7.75;7.75;;;;;21.53;50.58;101491.25;4938908;28;46203;-71
2022/08/31 08:14:23;;;;;;;;;12.25;9.75;;;;;21.58;50.42;101491.81;4939563;28;45556;-73
2022/08/31 08:16:49;;;;;;;;;9.00;8.00;;;;;21.63;50.30;101484.25;4922766;28;45346;-73
2022/08/31 08:19:15;;;;;;;;;9.25;9.25;;;;;21.62;50.06;101476.19;4925356;28;45494;-75
2022/08/31 08:21:42;;;;;;;;;11.75;10.25;;;;;21.64;49.41;101474.25;4942567;28;45477;-72
2022/08/31 08:24:09;;;;;;;;;9.75;8.50;;;;;21.68;50.26;101480.34;4943961;28;45480;-73
2022/08/31 08:26:34;;;;;;;;;10.00;9.50;;;;;21.68;50.41;101464.03;4943473;28;45243;-72
2022/08/31 08:29:00;;;;;;;;;8.00;8.00;;;;;21.74;50.41;101471.78;4940513;28;45331;-72
2022/08/31 08:31:29;;;;;;;;;10.25;9.50;;;;;21.78;49.76;101476.03;4937540;28;46085;-71
2022/08/31 08:33:59;;;;;;;;;11.00;10.00;;;;;21.74;49.85;101447.31;4924548;28;45406;-72
2022/08/31 08:36:27;;;;;;;;;9.25;8.25;;;;;21.63;50.12;101434.47;4942243;28;45610;-71
2022/08/31 08:38:56;;;;;;;;;10.75;8.75;;;;;21.75;49.43;101455.38;4942959;28;45470;-71
2022/08/31 08:41:27;;;;;;;;;8.50;8.00;;;;;21.91;49.69;101473.34;4923170;28;47503;-73
2022/08/31 08:43:59;;;;;;;;;10.00;9.00;;;;;21.79;49.54;101454.19;4942251;28;45337;-75
2022/08/31 08:46:50;;;;;;;;;12.00;11.25;;;;;21.99;49.84;101479.13;4942284;28;45423;-74
2022/08/31 08:53:42;;;;;;;;;;;;;;;;;;;;;
2022/08/31 08:56:13;;;;;;;;;11.75;9.75;;;;;21.89;49.25;101431.81;4941791;28;71835;-74
2022/08/31 08:58:44;;;;;;;;;6.50;6.50;;;;;21.88;50.08;101427.34;4942829;28;45359;-74
2022/08/31 09:01:35;;;;;;;;;;;;;;;;;;;;;
2022/08/31 09:04:20;;;;;;;;;13.25;12.25;;;;;22.30;50.20;101466.13;4934829;28;75368;-74
2022/08/31 09:07:19;;;;;;;;;11.25;10.00;;;;;22.34;50.26;101460.38;4941967;28;45651;-73
2022/08/31 09:09:47;;;;;;;;;12.75;12.50;;;;;22.36;49.30;101458.41;4940534;28;45752;-73
2022/08/31 09:12:21;;;;;;;;;12.25;10.75;;;;;22.44;49.89;101457.88;4939287;28;45508;-73
2022/08/31 09:15:24;;;;;;;;;;;;;;;;;;;;;
2022/08/31 09:18:25;;;;;;;;;10.00;9.25;;;;;22.56;49.95;101461.56;4939808;28;72925;-74
2022/08/31 09:21:23;;;;;;;;;13.25;10.50;;;;;22.61;49.79;101456.66;4885631;28;45687;-74
2022/08/31 09:24:10;;;;;;;;;15.25;11.75;;;;;22.30;49.04;101399.03;4940368;28;45536;-74
2022/08/31 09:27:19;;;;;;;;;16.00;10.00;;;;;22.54;49.48;101420.88;4920306;28;47288;-74
2022/08/31 09:30:04;;;;;;;;;13.25;10.25;;;;;22.65;49.94;101421.94;4919473;28;46025;-74
2022/08/31 09:33:04;;;;;;;;;9.50;8.50;;;;;22.52;49.38;101387.47;4942075;28;45566;-74
2022/08/31 09:38:48;;;;;;;;;9.25;9.25;;;;;22.61;49.41;101383.19;4932247;28;47414;-74
2022/08/31 09:41:38;;;;;;;;;11.75;10.00;;;;;22.87;49.46;101407.63;4923194;28;45400;-74
2022/08/31 09:44:29;;;;;;;;;14.00;9.75;;;;;22.72;49.62;101375.13;4940686;28;46394;-74
2022/08/31 09:48:07;;;;;;;;;;;;;;;;;;;;;
2022/08/31 09:57:09;;;;;;;;;11.00;11.00;;;;;23.19;48.82;101420.72;4931695;28;45470;-74
2022/08/31 09:59:50;;;;;;;;;12.25;9.50;;;;;22.93;48.66;101375.34;4923314;28;45553;-74
2022/08/31 10:02:21;;;;;;;;;11.00;10.50;;;;;23.35;48.76;101417.72;4939369;28;46213;-71
2022/08/31 10:05:16;;;;;;;;;9.00;8.50;;;;;23.23;49.04;101386.81;4940749;28;45880;-76
2022/08/31 10:08:03;;;;;;;;;11.50;10.75;;;;;23.12;49.36;101355.84;4922671;28;45382;-76
2022/08/31 10:10:53;;;;;;;;;12.50;12.50;;;;;23.35;48.53;101382.31;4939939;28;45716;-76
2022/08/31 10:13:38;;;;;;;;;12.00;10.25;;;;;23.23;48.43;101351.44;4924413;28;48017;-75
2022/08/31 10:16:33;;;;;;;;;13.75;11.25;;;;;23.65;47.82;101412.63;4921886;28;45554;-73
2022/08/31 10:20:06;;;;;;;;;;;;;;;;;;;;;
2022/08/31 10:35:01;;;;;;;;;8.50;8.00;;;;;23.62;48.14;101342.03;4818134;29;45525;-75
2022/08/31 10:37:08;;;;;;;;;11.00;11.00;;;;;24.07;47.52;101395.78;5055190;23;46140;-84
2022/08/31 10:58:19;;;;;;;;;10.25;8.00;;;;;24.33;47.53;101381.94;4792762;26;47062;-77
2022/08/31 11:18:00;;;;;;;;;;;;;;;;;;;;;
2022/08/31 11:21:00;;;;;;;;;;;;;;;;;;;;;
2022/08/31 11:24:01;;;;;;;;;11.50;9.50;;;;;24.78;46.71;101381.94;4855483;29;69401;-74
2022/08/31 11:27:34;;;;;;;;;10.50;9.50;;;;;24.63;45.56;101340.41;4857447;29;45633;-74
2022/08/31 11:30:50;;;;;;;;;9.75;9.25;;;;;24.91;45.51;101370.88;4804347;29;45710;-74
2022/08/31 11:55:10;;;;;;;;;;;;;;;;;;;;;
2022/08/31 12:12:23;;;;;;;;;;;;;;;;;;;;;
2022/08/31 12:36:24;;;;;;;;;11.25;10.75;;;;;25.58;43.84;101284.19;4931606;28;45500;-80
2022/08/31 12:39:25;;;;;;;;;;;;;;;;;;;;;
2022/08/31 12:42:51;;;;;;;;;10.25;9.25;;;;;25.83;43.18;101322.03;4938338;28;73326;-80
2022/08/31 12:45:58;;;;;;;;;11.00;11.00;;;;;25.57;43.51;101279.72;4896540;28;46535;-80
2022/08/31 12:48:38;;;;;;;;;11.50;10.75;;;;;25.61;42.82;101281.16;4926154;28;45702;-76
2022/08/31 12:54:45;;;;;;;;;13.25;11.75;;;;;25.90;42.87;101319.63;4904018;28;45681;-75
2022/08/31 13:16:30;;;;;;;;;;;;;;;;;;;;;
2022/08/31 13:22:41;;;;;;;;;10.75;10.75;;;;;26.14;42.51;101286.50;4753582;29;45603;-75
2022/08/31 13:25:47;;;;;;;;;11.25;11.25;;;;;25.97;42.19;101247.00;4839671;29;45486;-75
2022/08/31 13:28:13;;;;;;;;;10.00;9.75;;;;;26.30;41.82;101298.81;4919431;28;45526;-74
2022/08/31 13:30:41;;;;;;;;;12.25;11.25;;;;;26.32;42.35;101299.53;4914484;28;46040;-74
2022/08/31 13:33:33;;;;;;;;;14.50;13.75;;;;;26.18;42.45;101277.03;4919236;28;46303;-75
2022/08/31 13:36:32;;;;;;;;;12.25;10.00;;;;;26.32;41.59;101302.28;4916453;28;45461;-76
2022/08/31 13:39:10;;;;;;;;;13.00;11.00;;;;;26.35;42.22;101296.53;4881690;28;45469;-76
2022/08/31 13:41:40;;;;;;;;;12.50;10.25;;;;;26.24;42.00;101265.53;4905547;28;45422;-76
2022/08/31 13:44:12;;;;;;;;;14.25;12.75;;;;;26.31;42.08;101286.84;4902758;28;46780;-76
2022/08/31 13:46:42;;;;;;;;;11.50;10.00;;;;;26.22;41.50;101277.63;4913109;28;45377;-76
2022/08/31 13:49:24;;;;;;;;;11.50;10.75;;;;;26.06;42.08;101243.44;4905175;28;45323;-76
2022/08/31 13:51:53;;;;;;;;;10.50;10.50;;;;;26.06;41.35;101242.56;4920270;28;45856;-76
2022/08/31 13:54:34;;;;;;;;;11.00;11.00;;;;;26.16;41.81;101245.31;4904653;28;47782;-76
2022/08/31 13:57:29;;;;;;;;;9.00;9.00;;;;;26.42;41.71;101287.59;4916612;28;45908;-76
2022/08/31 14:00:40;;;;;;;;;13.75;13.00;;;;;26.44;41.80;101280.09;4893029;28;45503;-76
2022/08/31 14:03:33;;;;;;;;;13.50;10.00;;;;;26.46;42.05;101279.97;4913054;28;45612;-76
2022/08/31 14:06:36;;;;;;;;;14.50;13.25;;;;;26.47;42.40;101281.72;4915641;28;46302;-76
2022/08/31 14:09:17;;;;;;;;;10.75;10.75;;;;;26.47;41.94;101287.19;4914557;28;45644;-76
2022/08/31 14:11:52;;;;;;;;;10.25;10.25;;;;;26.22;42.06;101247.50;4905410;28;45297;-76
2022/08/31 14:14:38;;;;;;;;;10.00;9.25;;;;;26.12;41.35;101222.00;4895007;28;45807;-76
2022/08/31 14:17:14;;;;;;;;;12.75;11.25;;;;;26.30;41.80;101255.03;4921519;28;45466;-76
2022/08/31 14:19:41;;;;;;;;;11.00;11.00;;;;;26.14;41.45;101222.72;4892607;28;45499;-76
2022/08/31 14:22:31;;;;;;;;;12.50;12.50;;;;;26.47;41.32;101275.38;4903609;28;45453;-76
2022/08/31 14:24:59;;;;;;;;;12.50;12.50;;;;;26.33;40.84;101244.66;4896141;29;45400;-76
2022/08/31 14:27:28;;;;;;;;;13.25;12.00;;;;;26.36;40.27;101243.50;4903137;28;46176;-76
2022/08/31 14:29:54;;;;;;;;;12.00;11.50;;;;;26.47;40.91;101254.34;4901885;28;45360;-76
2022/08/31 14:32:25;;;;;;;;;15.00;14.25;;;;;26.17;41.05;101201.41;4899875;28;45466;-77
2022/08/31 14:34:52;;;;;;;;;12.75;11.00;;;;;26.25;40.82;101207.03;4921186;28;45425;-76
2022/08/31 14:37:28;;;;;;;;;16.00;12.75;;;;;26.52;40.88;101245.72;4919416;28;45516;-76
2022/08/31 14:39:56;;;;;;;;;11.75;11.75;;;;;26.55;41.20;101248.19;4904414;28;45357;-76
2022/08/31 14:42:24;;;;;;;;;12.25;11.25;;;;;26.59;41.37;101241.41;4899340;29;45478;-76
2022/08/31 14:45:17;;;;;;;;;14.75;14.00;;;;;26.62;40.31;101244.72;4895666;28;45590;-76
2022/08/31 14:47:45;;;;;;;;;12.75;12.50;;;;;26.54;40.63;101221.78;4916249;28;46196;-76
2022/08/31 14:50:17;;;;;;;;;11.00;11.00;;;;;26.47;39.92;101216.03;4911468;28;45573;-76
2022/08/31 14:52:53;;;;;;;;;9.25;9.25;;;;;26.39;39.78;101202.19;4904339;28;45385;-76
2022/08/31 14:55:21;;;;;;;;;13.75;12.00;;;;;26.36;40.02;101194.25;4898425;28;45796;-76
2022/08/31 14:58:06;;;;;;;;;12.25;12.25;;;;;26.39;39.79;101205.78;4918801;28;46446;-76
2022/08/31 15:00:36;;;;;;;;;10.25;10.25;;;;;26.42;39.96;101208.22;4918272;28;45438;-76
2022/08/31 15:03:01;;;;;;;;;12.00;12.00;;;;;26.33;40.16;101186.31;4915345;28;45640;-76
2022/08/31 15:05:27;;;;;;;;;12.00;12.00;;;;;26.48;40.01;101222.34;4900322;28;45739;-76
2022/08/31 15:07:56;;;;;;;;;11.50;11.50;;;;;26.26;40.00;101169.59;4920557;28;46361;-76
2022/08/31 15:10:24;;;;;;;;;10.50;10.00;;;;;26.31;39.78;101177.38;4901804;28;45893;-76
2022/08/31 15:12:52;;;;;;;;;12.00;11.00;;;;;26.44;39.92;101198.00;4901505;28;45438;-76
2022/08/31 15:15:20;;;;;;;;;11.00;11.00;;;;;26.34;39.17;101175.22;4893499;29;45667;-76
2022/08/31 15:17:55;;;;;;;;;11.75;9.75;;;;;26.38;39.37;101190.38;4894055;29;46893;-76
2022/08/31 15:20:22;;;;;;;;;17.25;13.75;;;;;26.60;39.35;101210.28;4890301;29;45599;-76
2022/08/31 15:22:48;;;;;;;;;10.00;10.00;;;;;26.59;39.50;101209.41;4919978;28;45805;-76
2022/08/31 15:25:13;;;;;;;;;13.50;13.50;;;;;26.51;39.87;101189.22;4902085;28;45466;-76
2022/08/31 15:27:42;;;;;;;;;11.75;9.75;;;;;26.43;39.56;101177.13;4907096;28;45304;-76
2022/08/31 15:30:13;;;;;;;;;10.00;10.00;;;;;26.41;38.95;101168.19;4903270;28;45406;-76
2022/08/31 15:32:43;;;;;;;;;9.00;9.00;;;;;26.50;39.50;101184.78;4920259;28;45534;-76
2022/08/31 15:35:23;;;;;;;;;10.25;9.75;;;;;26.39;40.09;101172.06;4914714;28;46168;-76
2022/08/31 15:38:02;;;;;;;;;10.50;10.00;;;;;26.67;39.68;101210.59;4918372;28;45491;-76
2022/08/31 15:40:38;;;;;;;;;16.25;14.00;;;;;26.60;39.77;101199.34;4918194;28;45388;-76
2022/08/31 15:43:08;;;;;;;;;13.00;11.00;;;;;26.40;40.38;101162.88;4894418;28;45583;-76
2022/08/31 15:45:34;;;;;;;;;13.25;12.25;;;;;26.71;40.49;101212.03;4898199;29;45498;-76
2022/08/31 15:50:59;;;;;;;;;11.50;9.00;;;;;26.64;39.61;101191.72;4908591;28;46038;-75
2022/08/31 15:53:32;;;;;;;;;12.75;12.75;;;;;26.47;40.38;101160.44;4919703;28;45411;-76
2022/08/31 15:56:04;;;;;;;;;11.75;11.75;;;;;26.81;39.86;101221.13;4920456;28;45341;-76
2022/08/31 15:58:34;;;;;;;;;10.75;10.75;;;;;26.49;40.34;101158.41;4898600;29;47338;-76
2022/08/31 16:01:12;;;;;;;;;8.75;8.75;;;;;26.75;39.62;101200.66;4910840;28;45459;-76
2022/08/31 16:03:44;;;;;;;;;12.00;11.00;;;;;26.60;39.58;101171.94;4902475;28;45491;-76
2022/08/31 16:06:13;;;;;;;;;12.00;11.00;;;;;26.56;39.65;101152.22;4917522;28;45488;-76
2022/08/31 16:08:42;;;;;;;;;10.25;10.00;;;;;26.52;39.31;101150.75;4921544;28;46000;-76
2022/08/31 16:11:09;;;;;;;;;9.00;9.00;;;;;26.57;39.11;101153.06;4919452;28;45273;-75
2022/08/31 16:13:59;;;;;;;;;11.25;11.25;;;;;26.65;39.54;101166.06;4902397;28;45390;-76
2022/08/31 16:16:31;;;;;;;;;12.00;12.00;;;;;26.89;39.17;101212.19;4914505;28;45607;-76
2022/08/31 16:18:57;;;;;;;;;9.50;9.50;;;;;26.60;39.01;101150.91;4903459;28;47959;-76
2022/08/31 16:21:26;;;;;;;;;12.25;12.25;;;;;26.57;38.83;101150.34;4902522;28;45446;-76
2022/08/31 16:23:59;;;;;;;;;9.25;9.25;;;;;26.59;38.76;101151.91;4902155;28;45583;-76
2022/08/31 16:26:37;;;;;;;;;8.00;8.00;;;;;26.72;38.87;101170.81;4890327;28;45380;-76
2022/08/31 16:29:11;;;;;;;;;12.00;12.00;;;;;26.71;38.72;101170.97;4918912;28;45469;-75
2022/08/31 16:31:41;;;;;;;;;12.00;10.25;;;;;26.76;39.39;101180.50;4899679;28;45752;-76
2022/08/31 16:34:09;;;;;;;;;9.75;9.75;;;;;26.52;38.58;101145.28;4902032;28;45499;-75
2022/08/31 16:36:35;;;;;;;;;8.50;8.50;;;;;26.59;38.33;101162.84;4910207;28;45473;-75
2022/08/31 16:39:02;;;;;;;;;12.00;10.50;;;;;26.57;39.06;101158.56;4890456;28;47569;-76
2022/08/31 16:41:30;;;;;;;;;12.50;10.75;;;;;26.53;38.77;101160.72;4905143;28;45991;-76
2022/08/31 16:43:59;;;;;;;;;11.75;11.75;;;;;26.48;39.21;101151.19;4899536;28;45533;-76
2022/08/31 16:46:25;;;;;;;;;11.25;11.25;;;;;26.71;38.07;101190.13;4904014;28;45428;-75
2022/08/31 16:51:36;;;;;;;;;9.25;9.25;;;;;26.50;39.18;101158.25;4922237;28;45239;-76
2022/08/31 16:54:05;;;;;;;;;13.25;13.00;;;;;26.44;39.56;101148.72;4902469;28;45674;-75
2022/08/31 16:56:34;;;;;;;;;12.25;12.25;;;;;26.57;39.37;101180.44;4904475;28;45641;-75
2022/08/31 16:59:00;;;;;;;;;11.00;11.00;;;;;26.57;39.47;101178.56;4922297;28;45660;-76
2022/08/31 17:01:32;;;;;;;;;11.25;10.25;;;;;26.40;39.58;101146.44;4905230;28;45400;-76
2022/08/31 17:04:07;;;;;;;;;10.75;10.00;;;;;26.40;40.15;101155.50;4903887;28;45817;-73
2022/08/31 17:06:37;;;;;;;;;11.50;11.25;;;;;26.43;39.75;101151.63;4920005;28;45567;-73
2022/08/31 17:09:06;;;;;;;;;12.75;12.00;;;;;26.34;39.46;101142.38;4905630;28;46635;-73
2022/08/31 17:11:37;;;;;;;;;9.75;9.75;;;;;26.51;39.72;101176.41;4888791;28;45363;-74
2022/08/31 17:14:07;;;;;;;;;10.75;9.75;;;;;26.30;39.95;101140.97;4922100;28;45357;-73
2022/08/31 17:16:36;;;;;;;;;13.50;11.75;;;;;26.62;39.56;101187.22;4903998;28;46006;-75
2022/08/31 17:19:06;;;;;;;;;11.00;11.00;;;;;26.55;39.90;101183.31;4921626;28;46368;-78
2022/08/31 17:21:32;;;;;;;;;13.25;12.00;;;;;26.33;39.83;101148.00;4915458;28;46009;-76
2022/08/31 17:24:01;;;;;;;;;13.25;12.25;;;;;26.31;39.72;101150.03;4915817;28;45342;-84